sensor_id;sensor_type;location;lat;lon;timestamp;pressure;altitude;pressure_sealevel;temperature;humidity
58385;BME280;44185;47.844;8.966;2023-05-24T00:01:45;96293.38;;;11.96;100.00
58385;BME280;44185;47.844;8.966;2023-05-24T00:04:12;96291.16;;;11.91;100.00
58385;BME280;44185;47.844;8.966;2023-05-24T00:06:37;96289.03;;;11.95;100.00
58385;BME280;44185;47.844;8.966;2023-05-24T00:09:03;96286.25;;;11.96;100.00
58385;BME280;44185;47.844;8.966;2023-05-24T00:11:29;96284.56;;;11.95;100.00
58385;BME280;44185;47.844;8.966;2023-05-24T00:13:54;96279.28;;;11.95;100.00
58385;BME280;44185;47.844;8.966;2023-05-24T00:16:20;96281.06;;;11.95;100.00
58385;BME280;44185;47.844;8.966;2023-05-24T00:18:45;96280.25;;;11.94;100.00
58385;BME280;44185;47.844;8.966;2023-05-24T00:21:12;96289.59;;;11.98;100.00
58385;BME280;44185;47.844;8.966;2023-05-24T00:23:38;96286.09;;;11.98;100.00
58385;BME280;44185;47.844;8.966;2023-05-24T00:26:05;96288.63;;;11.99;100.00
58385;BME280;44185;47.844;8.966;2023-05-24T00:28:30;96292.09;;;12.00;100.00
58385;BME280;44185;47.844;8.966;2023-05-24T00:30:56;96299.34;;;12.08;100.00
58385;BME280;44185;47.844;8.966;2023-05-24T00:33:21;96299.66;;;12.05;100.00
58385;BME280;44185;47.844;8.966;2023-05-24T00:35:47;96295.88;;;12.07;100.00
58385;BME280;44185;47.844;8.966;2023-05-24T00:38:14;96296.84;;;12.06;100.00
58385;BME280;44185;47.844;8.966;2023-05-24T00:40:39;96292.66;;;12.04;100.00
58385;BME280;44185;47.844;8.966;2023-05-24T00:43:05;96281.50;;;12.10;100.00
58385;BME280;44185;47.844;8.966;2023-05-24T00:45:30;96279.66;;;12.10;100.00
58385;BME280;44185;47.844;8.966;2023-05-24T00:47:56;96276.59;;;12.05;100.00
58385;BME280;44185;47.844;8.966;2023-05-24T00:50:22;96280.94;;;12.06;100.00
58385;BME280;44185;47.844;8.966;2023-05-24T00:52:48;96276.59;;;12.05;100.00
58385;BME280;44185;47.844;8.966;2023-05-24T00:55:16;96278.84;;;12.00;100.00
58385;BME280;44185;47.844;8.966;2023-05-24T00:57:42;96277.63;;;11.94;100.00
58385;BME280;44185;47.844;8.966;2023-05-24T01:00:08;96269.25;;;11.89;100.00
58385;BME280;44185;47.844;8.966;2023-05-24T01:02:34;96277.03;;;11.90;100.00
58385;BME280;44185;47.844;8.966;2023-05-24T01:05:00;96268.41;;;11.88;100.00
58385;BME280;44185;47.844;8.966;2023-05-24T01:07:29;96268.66;;;11.85;100.00
58385;BME280;44185;47.844;8.966;2023-05-24T01:10:02;96271.16;;;11.87;100.00
58385;BME280;44185;47.844;8.966;2023-05-24T01:12:37;96264.47;;;11.83;100.00
58385;BME280;44185;47.844;8.966;2023-05-24T01:15:10;96266.13;;;11.84;100.00
58385;BME280;44185;47.844;8.966;2023-05-24T01:17:46;96271.31;;;11.85;100.00
58385;BME280;44185;47.844;8.966;2023-05-24T01:20:16;96265.59;;;11.80;100.00
58385;BME280;44185;47.844;8.966;2023-05-24T01:23:04;96269.63;;;11.84;100.00
58385;BME280;44185;47.844;8.966;2023-05-24T01:25:48;96264.22;;;11.86;100.00
58385;BME280;44185;47.844;8.966;2023-05-24T01:28:16;96266.59;;;11.89;100.00
58385;BME280;44185;47.844;8.966;2023-05-24T01:30:43;96262.09;;;11.89;100.00
58385;BME280;44185;47.844;8.966;2023-05-24T01:33:09;96262.94;;;11.90;100.00
58385;BME280;44185;47.844;8.966;2023-05-24T01:35:35;96265.47;;;11.92;100.00
58385;BME280;44185;47.844;8.966;2023-05-24T01:38:00;96269.09;;;11.90;100.00
58385;BME280;44185;47.844;8.966;2023-05-24T01:40:25;96269.38;;;11.87;100.00
58385;BME280;44185;47.844;8.966;2023-05-24T01:42:55;96268.25;;;11.90;100.00
58385;BME280;44185;47.844;8.966;2023-05-24T01:45:30;96262.53;;;11.85;100.00
58385;BME280;44185;47.844;8.966;2023-05-24T01:48:03;96265.75;;;11.88;100.00
58385;BME280;44185;47.844;8.966;2023-05-24T01:50:31;96269.94;;;11.91;100.00
58385;BME280;44185;47.844;8.966;2023-05-24T01:53:02;96268.25;;;11.90;100.00
58385;BME280;44185;47.844;8.966;2023-05-24T01:55:29;96261.13;;;11.90;100.00
58385;BME280;44185;47.844;8.966;2023-05-24T01:58:00;96260.00;;;11.93;100.00
58385;BME280;44185;47.844;8.966;2023-05-24T02:00:27;96263.78;;;11.90;100.00
58385;BME280;44185;47.844;8.966;2023-05-24T02:02:53;96261.69;;;11.94;100.00
58385;BME280;44185;47.844;8.966;2023-05-24T02:05:20;96258.31;;;11.92;100.00
58385;BME280;44185;47.844;8.966;2023-05-24T02:07:46;96254.72;;;11.93;100.00
58385;BME280;44185;47.844;8.966;2023-05-24T02:10:11;96255.28;;;11.97;100.00
58385;BME280;44185;47.844;8.966;2023-05-24T02:12:37;96245.47;;;11.97;100.00
58385;BME280;44185;47.844;8.966;2023-05-24T02:15:02;96251.91;;;11.95;100.00
58385;BME280;44185;47.844;8.966;2023-05-24T02:17:29;96258.06;;;11.95;100.00
58385;BME280;44185;47.844;8.966;2023-05-24T02:19:55;96251.09;;;11.94;100.00
58385;BME280;44185;47.844;8.966;2023-05-24T02:22:20;96252.75;;;11.95;100.00
58385;BME280;44185;47.844;8.966;2023-05-24T02:24:45;96245.22;;;11.90;100.00
58385;BME280;44185;47.844;8.966;2023-05-24T02:27:11;96248.44;;;11.94;100.00
58385;BME280;44185;47.844;8.966;2023-05-24T02:29:36;96253.34;;;11.89;100.00
58385;BME280;44185;47.844;8.966;2023-05-24T02:32:02;96244.81;;;11.85;100.00
58385;BME280;44185;47.844;8.966;2023-05-24T02:34:29;96244.53;;;11.88;100.00
58385;BME280;44185;47.844;8.966;2023-05-24T02:36:54;96250.25;;;11.94;100.00
58385;BME280;44185;47.844;8.966;2023-05-24T02:39:19;96257.06;;;11.86;100.00
58385;BME280;44185;47.844;8.966;2023-05-24T02:41:45;96256.53;;;11.93;100.00
58385;BME280;44185;47.844;8.966;2023-05-24T02:44:10;96259.06;;;11.94;100.00
58385;BME280;44185;47.844;8.966;2023-05-24T02:46:36;96263.34;;;11.95;100.00
58385;BME280;44185;47.844;8.966;2023-05-24T02:49:02;96259.75;;;11.96;100.00
58385;BME280;44185;47.844;8.966;2023-05-24T02:51:28;96256.25;;;11.96;100.00
58385;BME280;44185;47.844;8.966;2023-05-24T02:53:54;96250.53;;;11.90;100.00
58385;BME280;44185;47.844;8.966;2023-05-24T02:56:19;96251.91;;;11.95;100.00
58385;BME280;44185;47.844;8.966;2023-05-24T02:58:45;96245.22;;;11.90;100.00
58385;BME280;44185;47.844;8.966;2023-05-24T03:01:10;96244.94;;;11.94;100.00
58385;BME280;44185;47.844;8.966;2023-05-24T03:03:36;96243.94;;;11.95;100.00
58385;BME280;44185;47.844;8.966;2023-05-24T03:06:02;96241.16;;;11.86;100.00
58385;BME280;44185;47.844;8.966;2023-05-24T03:08:29;96231.66;;;11.84;100.00
58385;BME280;44185;47.844;8.966;2023-05-24T03:10:54;96235.16;;;11.84;100.00
58385;BME280;44185;47.844;8.966;2023-05-24T03:13:20;96233.22;;;11.86;100.00
58385;BME280;44185;47.844;8.966;2023-05-24T03:15:45;96233.63;;;11.82;100.00
58385;BME280;44185;47.844;8.966;2023-05-24T03:18:10;96235.75;;;11.78;100.00
58385;BME280;44185;47.844;8.966;2023-05-24T03:20:36;96238.09;;;11.81;100.00
58385;BME280;44185;47.844;8.966;2023-05-24T03:23:01;96239.50;;;11.75;100.00
58385;BME280;44185;47.844;8.966;2023-05-24T03:25:28;96246.47;;;11.76;100.00
58385;BME280;44185;47.844;8.966;2023-05-24T03:27:54;96251.78;;;11.76;100.00
58385;BME280;44185;47.844;8.966;2023-05-24T03:30:19;96254.31;;;11.78;100.00
58385;BME280;44185;47.844;8.966;2023-05-24T03:32:45;96249.00;;;11.78;100.00
58385;BME280;44185;47.844;8.966;2023-05-24T03:35:10;96248.44;;;11.74;100.00
58385;BME280;44185;47.844;8.966;2023-05-24T03:37:36;96252.19;;;11.82;100.00
58385;BME280;44185;47.844;8.966;2023-05-24T03:40:01;96252.78;;;11.75;100.00
58385;BME280;44185;47.844;8.966;2023-05-24T03:42:28;96249.53;;;11.82;100.00
58385;BME280;44185;47.844;8.966;2023-05-24T03:44:53;96251.22;;;11.83;100.00
58385;BME280;44185;47.844;8.966;2023-05-24T03:47:19;96256.53;;;11.83;100.00
58385;BME280;44185;47.844;8.966;2023-05-24T03:49:45;96254.00;;;11.81;100.00
58385;BME280;44185;47.844;8.966;2023-05-24T03:52:10;96261.25;;;11.79;100.00
58385;BME280;44185;47.844;8.966;2023-05-24T03:54:35;96254.69;;;11.73;100.00
58385;BME280;44185;47.844;8.966;2023-05-24T03:57:01;96246.47;;;11.66;100.00
58385;BME280;44185;47.844;8.966;2023-05-24T03:59:28;96257.09;;;11.66;100.00
58385;BME280;44185;47.844;8.966;2023-05-24T04:01:53;96260.16;;;11.62;100.00
58385;BME280;44185;47.844;8.966;2023-05-24T04:04:19;96262.22;;;11.58;100.00
58385;BME280;44185;47.844;8.966;2023-05-24T04:06:45;96266.69;;;11.57;100.00
58385;BME280;44185;47.844;8.966;2023-05-24T04:09:10;96266.69;;;11.57;100.00
58385;BME280;44185;47.844;8.966;2023-05-24T04:11:35;96265.16;;;11.55;100.00
58385;BME280;44185;47.844;8.966;2023-05-24T04:14:01;96262.81;;;11.52;100.00
58385;BME280;44185;47.844;8.966;2023-05-24T04:16:28;96266.25;;;11.52;100.00
58385;BME280;44185;47.844;8.966;2023-05-24T04:18:54;96270.44;;;11.45;100.00
58385;BME280;44185;47.844;8.966;2023-05-24T04:21:20;96270.88;;;11.40;100.00
58385;BME280;44185;47.844;8.966;2023-05-24T04:23:45;96267.38;;;11.40;100.00
58385;BME280;44185;47.844;8.966;2023-05-24T04:26:10;96270.72;;;11.42;100.00
58385;BME280;44185;47.844;8.966;2023-05-24T04:28:36;96271.66;;;11.31;100.00
58385;BME280;44185;47.844;8.966;2023-05-24T04:31:01;96263.44;;;11.24;100.00
58385;BME280;44185;47.844;8.966;2023-05-24T04:33:28;96273.88;;;11.26;100.00
58385;BME280;44185;47.844;8.966;2023-05-24T04:35:54;96276.94;;;11.21;100.00
58385;BME280;44185;47.844;8.966;2023-05-24T04:38:19;96273.34;;;11.22;100.00
58385;BME280;44185;47.844;8.966;2023-05-24T04:40:45;96276.25;;;11.19;100.00
58385;BME280;44185;47.844;8.966;2023-05-24T04:43:10;96273.88;;;11.16;100.00
58385;BME280;44185;47.844;8.966;2023-05-24T04:45:36;96271.09;;;11.17;100.00
58385;BME280;44185;47.844;8.966;2023-05-24T04:48:01;96272.75;;;11.18;100.00
58385;BME280;44185;47.844;8.966;2023-05-24T04:50:28;96277.78;;;11.11;100.00
58385;BME280;44185;47.844;8.966;2023-05-24T04:52:54;96286.16;;;11.17;100.00
58385;BME280;44185;47.844;8.966;2023-05-24T04:55:20;96279.44;;;11.12;100.00
58385;BME280;44185;47.844;8.966;2023-05-24T04:57:45;96283.75;;;11.04;100.00
58385;BME280;44185;47.844;8.966;2023-05-24T05:00:12;96285.00;;;11.09;100.00
58385;BME280;44185;47.844;8.966;2023-05-24T05:02:37;96288.19;;;11.03;100.00
58385;BME280;44185;47.844;8.966;2023-05-24T05:05:03;96283.00;;;11.01;100.00
58385;BME280;44185;47.844;8.966;2023-05-24T05:07:30;96291.25;;;10.98;100.00
58385;BME280;44185;47.844;8.966;2023-05-24T05:09:56;96284.97;;;10.99;100.00
58385;BME280;44185;47.844;8.966;2023-05-24T05:12:21;96295.69;;;10.98;100.00
58385;BME280;44185;47.844;8.966;2023-05-24T05:14:47;96299.31;;;10.97;100.00
58385;BME280;44185;47.844;8.966;2023-05-24T05:17:12;96303.66;;;10.98;100.00
58385;BME280;44185;47.844;8.966;2023-05-24T05:19:37;96294.59;;;11.00;100.00
58385;BME280;44185;47.844;8.966;2023-05-24T05:22:03;96309.91;;;10.97;100.00
58385;BME280;44185;47.844;8.966;2023-05-24T05:24:30;96301.69;;;11.00;100.00
58385;BME280;44185;47.844;8.966;2023-05-24T05:26:56;96301.69;;;11.00;100.00
58385;BME280;44185;47.844;8.966;2023-05-24T05:29:21;96304.34;;;11.00;100.00
58385;BME280;44185;47.844;8.966;2023-05-24T05:31:46;96300.59;;;11.03;100.00
58385;BME280;44185;47.844;8.966;2023-05-24T05:34:12;96309.63;;;11.00;100.00
58385;BME280;44185;47.844;8.966;2023-05-24T05:36:37;96300.84;;;10.99;100.00
58385;BME280;44185;47.844;8.966;2023-05-24T05:39:03;96300.75;;;11.01;100.00
58385;BME280;44185;47.844;8.966;2023-05-24T05:41:29;96301.25;;;10.95;100.00
58385;BME280;44185;47.844;8.966;2023-05-24T05:43:55;96300.56;;;10.93;100.00
58385;BME280;44185;47.844;8.966;2023-05-24T05:46:20;96299.03;;;11.00;100.00
58385;BME280;44185;47.844;8.966;2023-05-24T05:48:46;96300.28;;;10.96;100.00
58385;BME280;44185;47.844;8.966;2023-05-24T05:51:11;96296.97;;;11.04;100.00
58385;BME280;44185;47.844;8.966;2023-05-24T05:53:37;96296.09;;;10.93;100.00
58385;BME280;44185;47.844;8.966;2023-05-24T05:56:02;96303.25;;;11.03;100.00
58385;BME280;44185;47.844;8.966;2023-05-24T05:58:29;96298.81;;;11.13;100.00
58385;BME280;44185;47.844;8.966;2023-05-24T06:00:54;96301.44;;;11.03;100.00
58385;BME280;44185;47.844;8.966;2023-05-24T06:03:20;96290.16;;;11.11;100.00
58385;BME280;44185;47.844;8.966;2023-05-24T06:05:45;96295.75;;;11.18;100.00
58385;BME280;44185;47.844;8.966;2023-05-24T06:08:11;96300.06;;;11.09;100.00
58385;BME280;44185;47.844;8.966;2023-05-24T06:10:36;96303.06;;;10.94;100.00
58385;BME280;44185;47.844;8.966;2023-05-24T06:13:02;96291.91;;;10.90;100.00
58385;BME280;44185;47.844;8.966;2023-05-24T06:15:29;96300.34;;;11.06;100.00
58385;BME280;44185;47.844;8.966;2023-05-24T06:17:54;96300.44;;;11.04;100.00
58385;BME280;44185;47.844;8.966;2023-05-24T06:20:19;96301.84;;;10.98;100.00
58385;BME280;44185;47.844;8.966;2023-05-24T06:22:45;96302.41;;;11.02;100.00
58385;BME280;44185;47.844;8.966;2023-05-24T06:25:10;96307.03;;;11.10;100.00
58385;BME280;44185;47.844;8.966;2023-05-24T06:27:36;96312.06;;;11.13;100.00
58385;BME280;44185;47.844;8.966;2023-05-24T06:30:01;96312.19;;;11.11;100.00
58385;BME280;44185;47.844;8.966;2023-05-24T06:32:28;96315.41;;;11.15;100.00
58385;BME280;44185;47.844;8.966;2023-05-24T06:34:53;96316.94;;;11.18;100.00
58385;BME280;44185;47.844;8.966;2023-05-24T06:37:19;96323.22;;;11.17;100.00
58385;BME280;44185;47.844;8.966;2023-05-24T06:39:45;96325.03;;;11.16;100.00
58385;BME280;44185;47.844;8.966;2023-05-24T06:42:10;96322.97;;;11.20;100.00
58385;BME280;44185;47.844;8.966;2023-05-24T06:44:35;96329.50;;;11.26;100.00
58385;BME280;44185;47.844;8.966;2023-05-24T06:47:01;96330.34;;;11.26;100.00
58385;BME280;44185;47.844;8.966;2023-05-24T06:49:28;96336.72;;;11.14;100.00
58385;BME280;44185;47.844;8.966;2023-05-24T06:51:53;96332.41;;;11.12;100.00
58385;BME280;44185;47.844;8.966;2023-05-24T06:54:19;96332.56;;;11.21;100.00
58385;BME280;44185;47.844;8.966;2023-05-24T06:56:45;96334.03;;;11.35;100.00
58385;BME280;44185;47.844;8.966;2023-05-24T06:59:10;96340.09;;;11.26;100.00
58385;BME280;44185;47.844;8.966;2023-05-24T07:01:36;96339.56;;;11.22;100.00
58385;BME280;44185;47.844;8.966;2023-05-24T07:04:01;96340.53;;;11.21;100.00
58385;BME280;44185;47.844;8.966;2023-05-24T07:06:28;96338.72;;;11.21;100.00
58385;BME280;44185;47.844;8.966;2023-05-24T07:08:53;96338.44;;;11.25;100.00
58385;BME280;44185;47.844;8.966;2023-05-24T07:11:19;96343.50;;;11.38;100.00
58385;BME280;44185;47.844;8.966;2023-05-24T07:13:45;96341.28;;;11.43;100.00
58385;BME280;44185;47.844;8.966;2023-05-24T07:16:10;96350.91;;;11.44;100.00
58385;BME280;44185;47.844;8.966;2023-05-24T07:18:35;96344.78;;;11.43;100.00
58385;BME280;44185;47.844;8.966;2023-05-24T07:21:01;96346.50;;;11.54;100.00
58385;BME280;44185;47.844;8.966;2023-05-24T07:23:28;96356.81;;;11.57;100.00
58385;BME280;44185;47.844;8.966;2023-05-24T07:25:53;96355.41;;;11.63;100.00
58385;BME280;44185;47.844;8.966;2023-05-24T07:28:28;96367.03;;;11.72;100.00
58385;BME280;44185;47.844;8.966;2023-05-24T07:30:53;96368.84;;;11.82;100.00
58385;BME280;44185;47.844;8.966;2023-05-24T07:33:19;96364.25;;;11.84;100.00
58385;BME280;44185;47.844;8.966;2023-05-24T07:35:45;96365.94;;;11.95;100.00
58385;BME280;44185;47.844;8.966;2023-05-24T07:38:10;96368.16;;;11.89;100.00
58385;BME280;44185;47.844;8.966;2023-05-24T07:40:37;96371.09;;;11.86;100.00
58385;BME280;44185;47.844;8.966;2023-05-24T07:43:02;96361.59;;;11.84;100.00
58385;BME280;44185;47.844;8.966;2023-05-24T07:45:28;96363.69;;;11.80;100.00
58385;BME280;44185;47.844;8.966;2023-05-24T07:47:53;96357.88;;;11.96;100.00
58385;BME280;44185;47.844;8.966;2023-05-24T07:50:19;96363.75;;;12.10;100.00
58385;BME280;44185;47.844;8.966;2023-05-24T07:52:45;96364.72;;;12.19;100.00
58385;BME280;44185;47.844;8.966;2023-05-24T07:55:10;96368.22;;;12.19;100.00
58385;BME280;44185;47.844;8.966;2023-05-24T07:57:37;96372.00;;;12.27;100.00
58385;BME280;44185;47.844;8.966;2023-05-24T08:00:03;96370.88;;;12.39;100.00
58385;BME280;44185;47.844;8.966;2023-05-24T08:02:28;96364.72;;;12.49;100.00
58385;BME280;44185;47.844;8.966;2023-05-24T08:04:53;96364.56;;;12.50;100.00
58385;BME280;44185;47.844;8.966;2023-05-24T08:07:19;96360.28;;;12.39;99.75
58385;BME280;44185;47.844;8.966;2023-05-24T08:09:44;96370.59;;;12.42;100.00
58385;BME280;44185;47.844;8.966;2023-05-24T08:12:10;96361.81;;;12.42;100.00
58385;BME280;44185;47.844;8.966;2023-05-24T08:14:37;96361.25;;;12.38;100.00
58385;BME280;44185;47.844;8.966;2023-05-24T08:17:02;96363.63;;;12.41;100.00
58385;BME280;44185;47.844;8.966;2023-05-24T08:19:28;96370.06;;;12.39;100.00
58385;BME280;44185;47.844;8.966;2023-05-24T08:21:54;96369.06;;;12.40;100.00
58385;BME280;44185;47.844;8.966;2023-05-24T08:24:19;96373.53;;;12.39;100.00
58385;BME280;44185;47.844;8.966;2023-05-24T08:26:45;96368.06;;;12.51;99.77
58385;BME280;44185;47.844;8.966;2023-05-24T08:29:10;96372.69;;;12.49;100.00
58385;BME280;44185;47.844;8.966;2023-05-24T08:31:37;96370.44;;;12.54;100.00
58385;BME280;44185;47.844;8.966;2023-05-24T08:34:03;96367.50;;;12.57;99.15
58385;BME280;44185;47.844;8.966;2023-05-24T08:36:28;96369.19;;;12.48;98.60
58385;BME280;44185;47.844;8.966;2023-05-24T08:38:54;96375.59;;;12.55;100.00
58385;BME280;44185;47.844;8.966;2023-05-24T08:41:19;96366.94;;;12.53;99.58
58385;BME280;44185;47.844;8.966;2023-05-24T08:43:46;96367.06;;;12.72;100.00
58385;BME280;44185;47.844;8.966;2023-05-24T08:46:11;96365.69;;;12.67;98.52
58385;BME280;44185;47.844;8.966;2023-05-24T08:48:44;96362.06;;;12.68;97.48
58385;BME280;44185;47.844;8.966;2023-05-24T08:51:10;96360.91;;;12.81;99.08
58385;BME280;44185;47.844;8.966;2023-05-24T08:53:36;96359.41;;;12.68;100.00
58385;BME280;44185;47.844;8.966;2023-05-24T08:56:03;96365.41;;;12.71;98.74
58385;BME280;44185;47.844;8.966;2023-05-24T08:58:30;96359.69;;;12.55;98.18
58385;BME280;44185;47.844;8.966;2023-05-24T09:00:56;96364.41;;;12.82;100.00
58385;BME280;44185;47.844;8.966;2023-05-24T09:03:22;96367.63;;;12.75;97.45
58385;BME280;44185;47.844;8.966;2023-05-24T09:05:50;96371.25;;;12.74;96.33
58385;BME280;44185;47.844;8.966;2023-05-24T09:08:17;96375.84;;;12.82;98.09
58385;BME280;44185;47.844;8.966;2023-05-24T09:10:43;96376.16;;;12.69;97.68
58385;BME280;44185;47.844;8.966;2023-05-24T09:13:09;96378.09;;;12.77;96.26
58385;BME280;44185;47.844;8.966;2023-05-24T09:15:35;96370.84;;;12.69;95.64
58385;BME280;44185;47.844;8.966;2023-05-24T09:18:01;96374.75;;;12.75;96.15
58385;BME280;44185;47.844;8.966;2023-05-24T09:20:26;96377.53;;;12.83;95.28
58385;BME280;44185;47.844;8.966;2023-05-24T09:22:54;96377.84;;;12.70;94.52
58385;BME280;44185;47.844;8.966;2023-05-24T09:25:20;96385.25;;;12.56;95.47
58385;BME280;44185;47.844;8.966;2023-05-24T09:27:48;96384.94;;;12.70;96.56
58385;BME280;44185;47.844;8.966;2023-05-24T09:30:14;96373.19;;;12.82;95.90
58385;BME280;44185;47.844;8.966;2023-05-24T09:32:40;96377.06;;;12.98;95.73
58385;BME280;44185;47.844;8.966;2023-05-24T09:35:07;96380.16;;;13.03;93.97
58385;BME280;44185;47.844;8.966;2023-05-24T09:37:35;96376.78;;;13.01;93.66
58385;BME280;44185;47.844;8.966;2023-05-24T09:40:02;96370.66;;;12.90;94.43
58385;BME280;44185;47.844;8.966;2023-05-24T09:42:27;96377.63;;;13.01;93.76
58385;BME280;44185;47.844;8.966;2023-05-24T09:44:59;96373.59;;;12.97;93.19
58385;BME280;44185;47.844;8.966;2023-05-24T09:47:27;96376.09;;;12.99;93.36
58385;BME280;44185;47.844;8.966;2023-05-24T09:49:53;96379.31;;;12.93;93.26
58385;BME280;44185;47.844;8.966;2023-05-24T09:52:18;96378.19;;;12.95;94.59
58385;BME280;44185;47.844;8.966;2023-05-24T09:54:44;96379.72;;;12.98;92.73
58385;BME280;44185;47.844;8.966;2023-05-24T09:57:11;96381.25;;;13.00;92.25
58385;BME280;44185;47.844;8.966;2023-05-24T09:59:39;96384.56;;;13.12;93.68
58385;BME280;44185;47.844;8.966;2023-05-24T10:02:08;96383.50;;;13.05;93.36
58385;BME280;44185;47.844;8.966;2023-05-24T10:04:34;96385.53;;;13.21;93.35
58385;BME280;44185;47.844;8.966;2023-05-24T10:07:00;96384.25;;;13.26;94.61
58385;BME280;44185;47.844;8.966;2023-05-24T10:09:26;96383.69;;;13.32;93.49
58385;BME280;44185;47.844;8.966;2023-05-24T10:11:52;96382.69;;;13.33;93.17
58385;BME280;44185;47.844;8.966;2023-05-24T10:14:18;96390.03;;;13.49;91.72
58385;BME280;44185;47.844;8.966;2023-05-24T10:16:44;96379.47;;;13.67;89.84
58385;BME280;44185;47.844;8.966;2023-05-24T10:19:10;96380.41;;;13.76;91.80
58385;BME280;44185;47.844;8.966;2023-05-24T10:21:38;96379.13;;;13.81;89.06
58385;BME280;44185;47.844;8.966;2023-05-24T10:24:08;96375.56;;;13.90;88.73
58385;BME280;44185;47.844;8.966;2023-05-24T10:26:36;96385.78;;;14.13;88.80
58385;BME280;44185;47.844;8.966;2023-05-24T10:29:06;96377.09;;;14.11;87.32
58385;BME280;44185;47.844;8.966;2023-05-24T10:31:38;96383.66;;;14.35;88.21
58385;BME280;44185;47.844;8.966;2023-05-24T10:34:05;96392.03;;;14.22;86.02
58385;BME280;44185;47.844;8.966;2023-05-24T10:36:32;96385.19;;;14.38;86.42
58385;BME280;44185;47.844;8.966;2023-05-24T10:38:57;96384.94;;;14.31;85.08
58385;BME280;44185;47.844;8.966;2023-05-24T10:41:24;96381.44;;;14.49;86.33
58385;BME280;44185;47.844;8.966;2023-05-24T10:43:50;96384.41;;;14.45;83.67
58385;BME280;44185;47.844;8.966;2023-05-24T10:46:17;96387.44;;;14.51;84.95
58385;BME280;44185;47.844;8.966;2023-05-24T10:48:57;96387.72;;;14.66;84.82
58385;BME280;44185;47.844;8.966;2023-05-24T10:51:30;96398.00;;;14.61;83.78
58385;BME280;44185;47.844;8.966;2023-05-24T10:53:57;96397.63;;;14.55;84.17
58385;BME280;44185;47.844;8.966;2023-05-24T10:56:22;96403.13;;;14.54;84.46
58385;BME280;44185;47.844;8.966;2023-05-24T10:58:58;96393.47;;;14.34;82.67
58385;BME280;44185;47.844;8.966;2023-05-24T11:01:24;96396.13;;;14.34;82.78
58385;BME280;44185;47.844;8.966;2023-05-24T11:03:51;96401.16;;;14.19;82.82
58385;BME280;44185;47.844;8.966;2023-05-24T11:06:17;96401.34;;;14.08;83.73
58385;BME280;44185;47.844;8.966;2023-05-24T11:08:42;96398.66;;;13.89;82.08
58385;BME280;44185;47.844;8.966;2023-05-24T11:11:09;96397.44;;;13.84;84.73
58385;BME280;44185;47.844;8.966;2023-05-24T11:13:35;96394.09;;;13.82;85.04
58385;BME280;44185;47.844;8.966;2023-05-24T11:16:01;96391.91;;;13.77;85.17
58385;BME280;44185;47.844;8.966;2023-05-24T11:18:26;96387.84;;;13.73;84.47
58385;BME280;44185;47.844;8.966;2023-05-24T11:20:53;96387.31;;;13.69;85.80
58385;BME280;44185;47.844;8.966;2023-05-24T11:23:19;96387.91;;;13.63;85.26
58385;BME280;44185;47.844;8.966;2023-05-24T11:25:46;96382.72;;;13.89;87.11
58385;BME280;44185;47.844;8.966;2023-05-24T11:28:11;96382.31;;;13.84;84.84
58385;BME280;44185;47.844;8.966;2023-05-24T11:30:40;96383.66;;;13.98;83.93
58385;BME280;44185;47.844;8.966;2023-05-24T11:33:12;96370.56;;;14.05;83.87
58385;BME280;44185;47.844;8.966;2023-05-24T11:35:38;96379.28;;;13.79;83.27
58385;BME280;44185;47.844;8.966;2023-05-24T11:38:09;96374.72;;;13.89;84.17
58385;BME280;44185;47.844;8.966;2023-05-24T11:40:34;96378.84;;;14.02;84.22
58385;BME280;44185;47.844;8.966;2023-05-24T11:43:00;96382.63;;;13.99;86.33
58385;BME280;44185;47.844;8.966;2023-05-24T11:45:28;96392.03;;;13.75;82.35
58385;BME280;44185;47.844;8.966;2023-05-24T11:47:54;96380.41;;;13.76;83.85
58385;BME280;44185;47.844;8.966;2023-05-24T11:50:22;96385.44;;;13.79;82.53
58385;BME280;44185;47.844;8.966;2023-05-24T11:52:48;96385.41;;;13.51;81.64
58385;BME280;44185;47.844;8.966;2023-05-24T11:55:22;96383.91;;;13.39;83.18
58385;BME280;44185;47.844;8.966;2023-05-24T11:57:53;96380.72;;;13.35;84.50
58385;BME280;44185;47.844;8.966;2023-05-24T12:00:24;96376.09;;;13.37;83.78
58385;BME280;44185;47.844;8.966;2023-05-24T12:02:50;96379.16;;;13.42;83.57
58385;BME280;44185;47.844;8.966;2023-05-24T12:05:17;96376.34;;;13.44;84.20
58385;BME280;44185;47.844;8.966;2023-05-24T12:07:43;96383.06;;;13.38;85.19
58385;BME280;44185;47.844;8.966;2023-05-24T12:10:09;96384.81;;;13.29;85.92
58385;BME280;44185;47.844;8.966;2023-05-24T12:12:42;96383.34;;;13.07;86.63
58385;BME280;44185;47.844;8.966;2023-05-24T12:15:08;96382.91;;;13.11;86.41
58385;BME280;44185;47.844;8.966;2023-05-24T12:17:34;96385.72;;;13.10;85.70
58385;BME280;44185;47.844;8.966;2023-05-24T12:20:01;96384.41;;;13.14;85.55
58385;BME280;44185;47.844;8.966;2023-05-24T12:22:27;96383.16;;;13.18;83.71
58385;BME280;44185;47.844;8.966;2023-05-24T12:24:53;96380.47;;;13.28;83.77
58385;BME280;44185;47.844;8.966;2023-05-24T12:27:19;96382.66;;;13.43;84.41
58385;BME280;44185;47.844;8.966;2023-05-24T12:29:50;96374.63;;;13.53;80.49
58385;BME280;44185;47.844;8.966;2023-05-24T12:32:19;96373.63;;;13.54;81.95
58385;BME280;44185;47.844;8.966;2023-05-24T12:34:44;96374.72;;;13.71;81.37
58385;BME280;44185;47.844;8.966;2023-05-24T12:37:10;96371.78;;;13.93;80.00
58385;BME280;44185;47.844;8.966;2023-05-24T12:39:35;96366.97;;;14.15;78.33
58385;BME280;44185;47.844;8.966;2023-05-24T12:42:02;96363.81;;;14.11;78.65
58385;BME280;44185;47.844;8.966;2023-05-24T12:44:29;96365.31;;;14.14;79.37
58385;BME280;44185;47.844;8.966;2023-05-24T12:46:56;96358.78;;;14.08;79.11
58385;BME280;44185;47.844;8.966;2023-05-24T12:49:23;96354.44;;;14.07;78.85